sensor_id;sensor_type;location;lat;lon;timestamp;P1;durP1;ratioP1;P2;durP2;ratioP2
49824;SDS011;35714;55.708;37.478;2023-06-04T00:02:09;2.80;;;1.20;;
49824;SDS011;35714;55.708;37.478;2023-06-04T00:04:36;3.30;;;1.30;;
49824;SDS011;35714;55.708;37.478;2023-06-04T00:07:02;3.92;;;1.10;;
49824;SDS011;35714;55.708;37.478;2023-06-04T00:09:27;4.03;;;1.60;;
49824;SDS011;35714;55.708;37.478;2023-06-04T00:11:54;3.20;;;1.20;;
49824;SDS011;35714;55.708;37.478;2023-06-04T00:14:20;4.00;;;1.52;;
49824;SDS011;35714;55.708;37.478;2023-06-04T00:16:46;3.08;;;1.13;;
49824;SDS011;35714;55.708;37.478;2023-06-04T00:19:12;4.85;;;1.15;;
49824;SDS011;35714;55.708;37.478;2023-06-04T00:21:38;6.03;;;1.50;;
49824;SDS011;35714;55.708;37.478;2023-06-04T00:24:04;3.78;;;1.15;;
49824;SDS011;35714;55.708;37.478;2023-06-04T00:26:30;4.47;;;1.40;;
49824;SDS011;35714;55.708;37.478;2023-06-04T00:28:55;5.10;;;1.50;;
49824;SDS011;35714;55.708;37.478;2023-06-04T00:31:21;3.88;;;1.60;;
49824;SDS011;35714;55.708;37.478;2023-06-04T00:33:47;5.55;;;2.17;;
49824;SDS011;35714;55.708;37.478;2023-06-04T00:36:13;7.28;;;2.72;;
49824;SDS011;35714;55.708;37.478;2023-06-04T00:38:39;7.75;;;3.70;;
49824;SDS011;35714;55.708;37.478;2023-06-04T00:41:05;8.52;;;4.32;;
49824;SDS011;35714;55.708;37.478;2023-06-04T00:43:31;9.48;;;4.72;;
49824;SDS011;35714;55.708;37.478;2023-06-04T00:45:58;12.40;;;5.40;;
49824;SDS011;35714;55.708;37.478;2023-06-04T00:48:24;8.65;;;5.07;;
49824;SDS011;35714;55.708;37.478;2023-06-04T00:50:53;9.23;;;4.95;;
49824;SDS011;35714;55.708;37.478;2023-06-04T00:53:20;6.40;;;3.00;;
49824;SDS011;35714;55.708;37.478;2023-06-04T00:55:48;7.95;;;2.95;;
49824;SDS011;35714;55.708;37.478;2023-06-04T00:58:13;6.18;;;3.20;;
49824;SDS011;35714;55.708;37.478;2023-06-04T01:00:41;7.80;;;2.85;;
49824;SDS011;35714;55.708;37.478;2023-06-04T01:03:10;6.68;;;2.92;;
49824;SDS011;35714;55.708;37.478;2023-06-04T01:06:04;5.68;;;2.22;;
49824;SDS011;35714;55.708;37.478;2023-06-04T01:08:31;6.22;;;2.78;;
49824;SDS011;35714;55.708;37.478;2023-06-04T01:10:57;5.28;;;2.45;;
49824;SDS011;35714;55.708;37.478;2023-06-04T01:13:24;4.30;;;2.25;;
49824;SDS011;35714;55.708;37.478;2023-06-04T01:15:50;5.55;;;2.97;;
49824;SDS011;35714;55.708;37.478;2023-06-04T01:18:19;4.75;;;2.03;;
49824;SDS011;35714;55.708;37.478;2023-06-04T01:20:58;8.07;;;3.05;;
49824;SDS011;35714;55.708;37.478;2023-06-04T01:26:13;5.65;;;2.78;;
49824;SDS011;35714;55.708;37.478;2023-06-04T01:31:28;6.88;;;2.78;;
49824;SDS011;35714;55.708;37.478;2023-06-04T01:33:58;6.18;;;2.00;;
49824;SDS011;35714;55.708;37.478;2023-06-04T01:36:24;6.43;;;2.33;;
49824;SDS011;35714;55.708;37.478;2023-06-04T01:38:50;6.15;;;1.98;;
49824;SDS011;35714;55.708;37.478;2023-06-04T01:41:16;6.07;;;1.95;;
49824;SDS011;35714;55.708;37.478;2023-06-04T01:43:42;4.50;;;2.40;;
49824;SDS011;35714;55.708;37.478;2023-06-04T01:46:08;5.05;;;2.08;;
49824;SDS011;35714;55.708;37.478;2023-06-04T01:48:34;4.75;;;2.38;;
49824;SDS011;35714;55.708;37.478;2023-06-04T01:51:00;3.97;;;2.13;;
49824;SDS011;35714;55.708;37.478;2023-06-04T01:53:27;5.60;;;1.75;;
49824;SDS011;35714;55.708;37.478;2023-06-04T01:55:53;4.05;;;1.50;;
49824;SDS011;35714;55.708;37.478;2023-06-04T01:58:19;4.43;;;1.80;;
49824;SDS011;35714;55.708;37.478;2023-06-04T02:00:48;5.25;;;2.05;;
49824;SDS011;35714;55.708;37.478;2023-06-04T02:03:15;6.80;;;3.08;;
49824;SDS011;35714;55.708;37.478;2023-06-04T02:05:41;4.28;;;1.70;;
49824;SDS011;35714;55.708;37.478;2023-06-04T02:08:09;5.13;;;1.70;;
49824;SDS011;35714;55.708;37.478;2023-06-04T02:10:36;3.38;;;1.33;;
49824;SDS011;35714;55.708;37.478;2023-06-04T02:13:02;4.68;;;1.40;;
49824;SDS011;35714;55.708;37.478;2023-06-04T02:15:30;3.72;;;1.48;;
49824;SDS011;35714;55.708;37.478;2023-06-04T02:17:58;5.80;;;1.30;;
49824;SDS011;35714;55.708;37.478;2023-06-04T02:20:26;3.13;;;1.20;;
49824;SDS011;35714;55.708;37.478;2023-06-04T02:22:53;2.67;;;1.10;;
49824;SDS011;35714;55.708;37.478;2023-06-04T02:25:20;2.88;;;1.15;;
49824;SDS011;35714;55.708;37.478;2023-06-04T02:27:46;3.30;;;1.15;;
49824;SDS011;35714;55.708;37.478;2023-06-04T02:30:11;3.40;;;1.50;;
49824;SDS011;35714;55.708;37.478;2023-06-04T02:32:37;4.40;;;1.10;;
49824;SDS011;35714;55.708;37.478;2023-06-04T02:35:04;2.83;;;0.70;;
49824;SDS011;35714;55.708;37.478;2023-06-04T02:37:30;4.07;;;1.10;;
49824;SDS011;35714;55.708;37.478;2023-06-04T02:39:56;5.07;;;1.35;;
49824;SDS011;35714;55.708;37.478;2023-06-04T02:42:21;3.47;;;1.25;;
49824;SDS011;35714;55.708;37.478;2023-06-04T02:44:47;2.40;;;0.80;;
49824;SDS011;35714;55.708;37.478;2023-06-04T02:47:13;4.10;;;1.00;;
49824;SDS011;35714;55.708;37.478;2023-06-04T02:49:38;3.42;;;1.17;;
49824;SDS011;35714;55.708;37.478;2023-06-04T02:52:04;3.17;;;1.10;;
49824;SDS011;35714;55.708;37.478;2023-06-04T02:54:30;2.53;;;0.90;;
49824;SDS011;35714;55.708;37.478;2023-06-04T02:56:56;2.67;;;0.90;;
49824;SDS011;35714;55.708;37.478;2023-06-04T02:59:22;4.05;;;1.27;;
49824;SDS011;35714;55.708;37.478;2023-06-04T03:01:48;2.28;;;0.82;;
49824;SDS011;35714;55.708;37.478;2023-06-04T03:04:13;2.35;;;0.80;;
49824;SDS011;35714;55.708;37.478;2023-06-04T03:06:41;5.53;;;1.40;;
49824;SDS011;35714;55.708;37.478;2023-06-04T03:09:11;4.18;;;1.10;;
49824;SDS011;35714;55.708;37.478;2023-06-04T03:11:37;3.45;;;1.42;;
49824;SDS011;35714;55.708;37.478;2023-06-04T03:14:03;3.75;;;1.17;;
49824;SDS011;35714;55.708;37.478;2023-06-04T03:16:29;3.90;;;1.42;;
49824;SDS011;35714;55.708;37.478;2023-06-04T03:18:55;4.40;;;1.20;;
49824;SDS011;35714;55.708;37.478;2023-06-04T03:21:22;1.92;;;0.70;;
49824;SDS011;35714;55.708;37.478;2023-06-04T03:23:50;4.65;;;1.30;;
49824;SDS011;35714;55.708;37.478;2023-06-04T03:26:16;3.25;;;1.05;;
49824;SDS011;35714;55.708;37.478;2023-06-04T03:28:42;4.18;;;1.73;;
49824;SDS011;35714;55.708;37.478;2023-06-04T03:31:09;3.35;;;0.98;;
49824;SDS011;35714;55.708;37.478;2023-06-04T03:33:35;4.32;;;1.45;;
49824;SDS011;35714;55.708;37.478;2023-06-04T03:36:01;2.55;;;0.90;;
49824;SDS011;35714;55.708;37.478;2023-06-04T03:38:28;3.10;;;1.05;;
49824;SDS011;35714;55.708;37.478;2023-06-04T03:40:53;2.60;;;0.90;;
49824;SDS011;35714;55.708;37.478;2023-06-04T03:43:20;2.85;;;1.17;;
49824;SDS011;35714;55.708;37.478;2023-06-04T03:45:48;5.03;;;1.35;;
49824;SDS011;35714;55.708;37.478;2023-06-04T03:48:14;2.35;;;0.85;;
49824;SDS011;35714;55.708;37.478;2023-06-04T03:50:41;2.65;;;1.05;;
49824;SDS011;35714;55.708;37.478;2023-06-04T03:53:08;8.43;;;1.80;;
49824;SDS011;35714;55.708;37.478;2023-06-04T03:55:34;6.70;;;1.88;;
49824;SDS011;35714;55.708;37.478;2023-06-04T03:58:02;3.40;;;1.35;;
49824;SDS011;35714;55.708;37.478;2023-06-04T04:00:28;3.67;;;1.38;;
49824;SDS011;35714;55.708;37.478;2023-06-04T04:02:57;2.95;;;0.90;;
49824;SDS011;35714;55.708;37.478;2023-06-04T04:05:28;3.60;;;1.10;;
49824;SDS011;35714;55.708;37.478;2023-06-04T04:07:54;2.70;;;0.90;;
49824;SDS011;35714;55.708;37.478;2023-06-04T04:10:24;3.45;;;1.35;;
49824;SDS011;35714;55.708;37.478;2023-06-04T04:12:50;2.67;;;1.00;;
49824;SDS011;35714;55.708;37.478;2023-06-04T04:15:20;3.63;;;0.90;;
49824;SDS011;35714;55.708;37.478;2023-06-04T04:17:46;2.90;;;1.10;;
49824;SDS011;35714;55.708;37.478;2023-06-04T04:20:12;2.58;;;0.98;;
49824;SDS011;35714;55.708;37.478;2023-06-04T04:22:44;4.60;;;0.95;;
49824;SDS011;35714;55.708;37.478;2023-06-04T04:25:12;2.30;;;1.02;;
49824;SDS011;35714;55.708;37.478;2023-06-04T04:27:38;4.70;;;1.10;;
49824;SDS011;35714;55.708;37.478;2023-06-04T04:30:08;2.75;;;1.00;;
49824;SDS011;35714;55.708;37.478;2023-06-04T04:32:35;3.95;;;1.10;;
49824;SDS011;35714;55.708;37.478;2023-06-04T04:35:04;2.30;;;0.75;;
49824;SDS011;35714;55.708;37.478;2023-06-04T04:37:35;2.85;;;0.82;;
49824;SDS011;35714;55.708;37.478;2023-06-04T04:40:08;1.65;;;0.65;;
49824;SDS011;35714;55.708;37.478;2023-06-04T04:42:36;5.10;;;1.15;;
49824;SDS011;35714;55.708;37.478;2023-06-04T04:45:04;3.20;;;1.10;;
49824;SDS011;35714;55.708;37.478;2023-06-04T04:47:32;2.03;;;0.85;;
49824;SDS011;35714;55.708;37.478;2023-06-04T04:49:58;3.05;;;1.10;;
49824;SDS011;35714;55.708;37.478;2023-06-04T04:52:24;3.00;;;0.90;;
49824;SDS011;35714;55.708;37.478;2023-06-04T04:54:50;2.03;;;0.80;;
49824;SDS011;35714;55.708;37.478;2023-06-04T04:57:21;3.13;;;0.73;;
49824;SDS011;35714;55.708;37.478;2023-06-04T04:59:50;2.45;;;0.82;;
49824;SDS011;35714;55.708;37.478;2023-06-04T05:02:16;3.70;;;0.82;;
49824;SDS011;35714;55.708;37.478;2023-06-04T05:04:41;3.67;;;1.70;;
49824;SDS011;35714;55.708;37.478;2023-06-04T05:07:07;2.15;;;0.75;;
49824;SDS011;35714;55.708;37.478;2023-06-04T05:09:33;2.03;;;0.65;;
49824;SDS011;35714;55.708;37.478;2023-06-04T05:11:59;2.08;;;0.70;;
49824;SDS011;35714;55.708;37.478;2023-06-04T05:14:26;5.47;;;0.80;;
49824;SDS011;35714;55.708;37.478;2023-06-04T05:16:52;1.20;;;0.60;;
49824;SDS011;35714;55.708;37.478;2023-06-04T05:19:19;4.22;;;0.90;;
49824;SDS011;35714;55.708;37.478;2023-06-04T05:21:45;4.78;;;0.82;;
49824;SDS011;35714;55.708;37.478;2023-06-04T05:24:14;2.35;;;0.82;;
49824;SDS011;35714;55.708;37.478;2023-06-04T05:26:40;3.20;;;0.77;;
49824;SDS011;35714;55.708;37.478;2023-06-04T05:29:13;2.50;;;0.70;;
49824;SDS011;35714;55.708;37.478;2023-06-04T05:31:42;3.55;;;0.80;;
49824;SDS011;35714;55.708;37.478;2023-06-04T05:34:10;2.72;;;0.60;;
49824;SDS011;35714;55.708;37.478;2023-06-04T05:36:39;2.58;;;0.73;;
49824;SDS011;35714;55.708;37.478;2023-06-04T05:39:06;4.28;;;1.13;;
49824;SDS011;35714;55.708;37.478;2023-06-04T05:41:41;4.20;;;0.82;;
49824;SDS011;35714;55.708;37.478;2023-06-04T05:44:09;1.85;;;0.70;;
49824;SDS011;35714;55.708;37.478;2023-06-04T05:46:35;2.10;;;0.82;;
49824;SDS011;35714;55.708;37.478;2023-06-04T05:49:01;5.45;;;1.13;;
49824;SDS011;35714;55.708;37.478;2023-06-04T05:51:27;2.28;;;0.70;;
49824;SDS011;35714;55.708;37.478;2023-06-04T05:53:54;2.45;;;0.50;;
49824;SDS011;35714;55.708;37.478;2023-06-04T05:56:20;3.75;;;0.60;;
49824;SDS011;35714;55.708;37.478;2023-06-04T05:58:51;1.27;;;0.50;;
49824;SDS011;35714;55.708;37.478;2023-06-04T06:01:18;3.17;;;0.60;;
49824;SDS011;35714;55.708;37.478;2023-06-04T06:03:44;1.70;;;0.60;;
49824;SDS011;35714;55.708;37.478;2023-06-04T06:06:09;5.32;;;0.75;;
49824;SDS011;35714;55.708;37.478;2023-06-04T06:08:39;2.63;;;0.98;;
49824;SDS011;35714;55.708;37.478;2023-06-04T06:11:05;2.40;;;0.52;;
49824;SDS011;35714;55.708;37.478;2023-06-04T06:13:32;2.08;;;0.75;;
49824;SDS011;35714;55.708;37.478;2023-06-04T06:15:58;2.17;;;0.60;;
49824;SDS011;35714;55.708;37.478;2023-06-04T06:18:24;1.70;;;0.50;;
49824;SDS011;35714;55.708;37.478;2023-06-04T06:20:51;1.13;;;0.43;;
49824;SDS011;35714;55.708;37.478;2023-06-04T06:23:16;1.48;;;0.50;;
49824;SDS011;35714;55.708;37.478;2023-06-04T06:25:44;2.15;;;0.70;;
49824;SDS011;35714;55.708;37.478;2023-06-04T06:28:15;1.73;;;0.68;;
49824;SDS011;35714;55.708;37.478;2023-06-04T06:30:43;1.15;;;0.40;;
49824;SDS011;35714;55.708;37.478;2023-06-04T06:33:10;1.52;;;0.50;;
49824;SDS011;35714;55.708;37.478;2023-06-04T06:35:35;1.75;;;0.60;;
49824;SDS011;35714;55.708;37.478;2023-06-04T06:38:01;2.13;;;0.65;;
49824;SDS011;35714;55.708;37.478;2023-06-04T06:40:27;5.90;;;1.08;;
49824;SDS011;35714;55.708;37.478;2023-06-04T06:42:55;2.03;;;0.50;;
49824;SDS011;35714;55.708;37.478;2023-06-04T06:45:21;3.10;;;0.60;;
49824;SDS011;35714;55.708;37.478;2023-06-04T06:47:47;1.35;;;0.50;;
49824;SDS011;35714;55.708;37.478;2023-06-04T06:50:13;1.88;;;0.55;;
49824;SDS011;35714;55.708;37.478;2023-06-04T06:52:39;3.33;;;0.95;;
49824;SDS011;35714;55.708;37.478;2023-06-04T06:55:05;3.30;;;0.70;;
49824;SDS011;35714;55.708;37.478;2023-06-04T06:57:31;4.88;;;1.08;;
49824;SDS011;35714;55.708;37.478;2023-06-04T06:59:59;4.28;;;1.00;;
49824;SDS011;35714;55.708;37.478;2023-06-04T07:02:25;2.20;;;0.60;;
49824;SDS011;35714;55.708;37.478;2023-06-04T07:04:50;1.20;;;0.45;;
49824;SDS011;35714;55.708;37.478;2023-06-04T07:07:16;1.27;;;0.35;;
49824;SDS011;35714;55.708;37.478;2023-06-04T07:09:42;2.03;;;0.50;;
49824;SDS011;35714;55.708;37.478;2023-06-04T07:12:08;2.85;;;0.63;;
49824;SDS011;35714;55.708;37.478;2023-06-04T07:14:33;2.15;;;0.40;;
49824;SDS011;35714;55.708;37.478;2023-06-04T07:17:00;1.30;;;0.50;;
49824;SDS011;35714;55.708;37.478;2023-06-04T07:19:25;1.02;;;0.22;;
49824;SDS011;35714;55.708;37.478;2023-06-04T07:21:53;1.20;;;0.45;;
49824;SDS011;35714;55.708;37.478;2023-06-04T07:24:20;1.65;;;0.50;;
49824;SDS011;35714;55.708;37.478;2023-06-04T07:26:46;1.55;;;0.50;;
49824;SDS011;35714;55.708;37.478;2023-06-04T07:29:12;3.47;;;0.63;;
49824;SDS011;35714;55.708;37.478;2023-06-04T07:31:38;2.22;;;0.60;;
49824;SDS011;35714;55.708;37.478;2023-06-04T07:34:04;2.05;;;0.70;;
49824;SDS011;35714;55.708;37.478;2023-06-04T07:36:30;3.90;;;0.68;;
49824;SDS011;35714;55.708;37.478;2023-06-04T07:38:56;1.75;;;0.68;;
49824;SDS011;35714;55.708;37.478;2023-06-04T07:41:22;2.80;;;0.70;;
49824;SDS011;35714;55.708;37.478;2023-06-04T07:43:48;5.20;;;0.80;;
49824;SDS011;35714;55.708;37.478;2023-06-04T07:46:13;1.40;;;0.47;;
49824;SDS011;35714;55.708;37.478;2023-06-04T07:48:44;1.92;;;0.50;;
49824;SDS011;35714;55.708;37.478;2023-06-04T07:51:10;1.70;;;0.45;;
49824;SDS011;35714;55.708;37.478;2023-06-04T07:53:37;2.05;;;0.60;;
49824;SDS011;35714;55.708;37.478;2023-06-04T07:56:03;2.95;;;0.85;;
49824;SDS011;35714;55.708;37.478;2023-06-04T07:58:29;2.17;;;0.63;;
49824;SDS011;35714;55.708;37.478;2023-06-04T08:00:55;1.42;;;0.50;;
49824;SDS011;35714;55.708;37.478;2023-06-04T08:03:21;1.85;;;0.55;;
49824;SDS011;35714;55.708;37.478;2023-06-04T08:05:47;2.88;;;0.90;;
49824;SDS011;35714;55.708;37.478;2023-06-04T08:08:13;3.92;;;0.70;;
49824;SDS011;35714;55.708;37.478;2023-06-04T08:10:39;2.25;;;0.65;;
49824;SDS011;35714;55.708;37.478;2023-06-04T08:13:05;2.75;;;0.50;;
49824;SDS011;35714;55.708;37.478;2023-06-04T08:15:32;3.88;;;0.70;;
49824;SDS011;35714;55.708;37.478;2023-06-04T08:18:17;1.83;;;0.68;;
49824;SDS011;35714;55.708;37.478;2023-06-04T08:21:03;1.88;;;0.50;;
49824;SDS011;35714;55.708;37.478;2023-06-04T08:23:40;2.05;;;0.57;;
49824;SDS011;35714;55.708;37.478;2023-06-04T08:29:15;1.50;;;0.63;;
49824;SDS011;35714;55.708;37.478;2023-06-04T08:31:43;3.45;;;1.08;;
49824;SDS011;35714;55.708;37.478;2023-06-04T08:34:20;3.20;;;1.10;;
49824;SDS011;35714;55.708;37.478;2023-06-04T08:36:47;2.20;;;0.47;;
49824;SDS011;35714;55.708;37.478;2023-06-04T08:39:13;3.42;;;0.70;;
49824;SDS011;35714;55.708;37.478;2023-06-04T08:44:10;1.92;;;0.60;;
49824;SDS011;35714;55.708;37.478;2023-06-04T08:46:39;2.20;;;0.60;;
49824;SDS011;35714;55.708;37.478;2023-06-04T08:49:06;2.90;;;1.02;;
49824;SDS011;35714;55.708;37.478;2023-06-04T08:51:33;2.65;;;0.90;;
49824;SDS011;35714;55.708;37.478;2023-06-04T08:54:06;2.72;;;1.10;;
49824;SDS011;35714;55.708;37.478;2023-06-04T08:56:33;2.10;;;0.85;;
49824;SDS011;35714;55.708;37.478;2023-06-04T08:59:01;3.40;;;0.73;;
49824;SDS011;35714;55.708;37.478;2023-06-04T09:01:32;2.65;;;0.70;;
49824;SDS011;35714;55.708;37.478;2023-06-04T09:03:59;2.95;;;0.68;;
49824;SDS011;35714;55.708;37.478;2023-06-04T09:06:27;2.97;;;0.85;;
49824;SDS011;35714;55.708;37.478;2023-06-04T09:08:57;2.78;;;0.77;;
49824;SDS011;35714;55.708;37.478;2023-06-04T09:11:26;1.88;;;0.63;;
49824;SDS011;35714;55.708;37.478;2023-06-04T09:13:56;1.15;;;0.50;;
49824;SDS011;35714;55.708;37.478;2023-06-04T09:16:26;1.00;;;0.45;;
49824;SDS011;35714;55.708;37.478;2023-06-04T09:18:52;1.73;;;0.50;;
49824;SDS011;35714;55.708;37.478;2023-06-04T09:21:19;1.42;;;0.50;;
49824;SDS011;35714;55.708;37.478;2023-06-04T09:23:45;2.13;;;0.57;;
49824;SDS011;35714;55.708;37.478;2023-06-04T09:26:12;4.70;;;0.70;;
49824;SDS011;35714;55.708;37.478;2023-06-04T09:28:42;3.50;;;0.70;;
49824;SDS011;35714;55.708;37.478;2023-06-04T09:31:20;1.45;;;0.43;;
49824;SDS011;35714;55.708;37.478;2023-06-04T09:33:50;2.53;;;0.70;;
49824;SDS011;35714;55.708;37.478;2023-06-04T09:36:16;2.40;;;0.80;;
49824;SDS011;35714;55.708;37.478;2023-06-04T09:38:42;2.03;;;0.77;;
49824;SDS011;35714;55.708;37.478;2023-06-04T09:41:13;2.05;;;0.52;;
49824;SDS011;35714;55.708;37.478;2023-06-04T09:43:40;1.52;;;0.52;;
49824;SDS011;35714;55.708;37.478;2023-06-04T09:46:09;1.77;;;0.50;;
49824;SDS011;35714;55.708;37.478;2023-06-04T09:48:36;1.88;;;0.52;;
49824;SDS011;35714;55.708;37.478;2023-06-04T09:51:06;0.93;;;0.40;;
49824;SDS011;35714;55.708;37.478;2023-06-04T09:53:35;2.38;;;0.50;;
49824;SDS011;35714;55.708;37.478;2023-06-04T09:56:02;2.67;;;0.90;;
49824;SDS011;35714;55.708;37.478;2023-06-04T09:58:29;1.42;;;0.50;;
49824;SDS011;35714;55.708;37.478;2023-06-04T10:00:56;2.97;;;0.68;;
49824;SDS011;35714;55.708;37.478;2023-06-04T10:03:23;1.60;;;0.60;;
49824;SDS011;35714;55.708;37.478;2023-06-04T10:05:53;2.15;;;0.60;;
49824;SDS011;35714;55.708;37.478;2023-06-04T10:08:22;2.13;;;0.70;;
49824;SDS011;35714;55.708;37.478;2023-06-04T10:10:51;2.38;;;0.70;;
49824;SDS011;35714;55.708;37.478;2023-06-04T10:13:27;1.50;;;0.50;;
49824;SDS011;35714;55.708;37.478;2023-06-04T10:15:56;1.67;;;0.60;;
49824;SDS011;35714;55.708;37.478;2023-06-04T10:18:23;2.35;;;0.70;;
49824;SDS011;35714;55.708;37.478;2023-06-04T10:20:50;1.88;;;0.98;;
49824;SDS011;35714;55.708;37.478;2023-06-04T10:23:18;1.20;;;0.40;;
49824;SDS011;35714;55.708;37.478;2023-06-04T10:25:48;2.15;;;0.70;;
49824;SDS011;35714;55.708;37.478;2023-06-04T10:28:16;1.27;;;0.50;;
49824;SDS011;35714;55.708;37.478;2023-06-04T10:30:44;1.55;;;0.60;;
49824;SDS011;35714;55.708;37.478;2023-06-04T10:33:10;5.65;;;0.73;;
49824;SDS011;35714;55.708;37.478;2023-06-04T10:35:36;3.58;;;0.93;;
49824;SDS011;35714;55.708;37.478;2023-06-04T10:38:08;3.83;;;0.60;;
49824;SDS011;35714;55.708;37.478;2023-06-04T10:40:35;2.05;;;0.63;;
49824;SDS011;35714;55.708;37.478;2023-06-04T10:43:09;2.50;;;1.13;;
49824;SDS011;35714;55.708;37.478;2023-06-04T10:45:38;2.65;;;0.80;;
49824;SDS011;35714;55.708;37.478;2023-06-04T10:48:06;1.33;;;0.50;;
49824;SDS011;35714;55.708;37.478;2023-06-04T10:50:33;3.25;;;0.73;;
49824;SDS011;35714;55.708;37.478;2023-06-04T10:53:00;2.97;;;0.90;;
49824;SDS011;35714;55.708;37.478;2023-06-04T10:55:29;2.10;;;0.63;;
49824;SDS011;35714;55.708;37.478;2023-06-04T10:57:56;3.85;;;0.80;;
49824;SDS011;35714;55.708;37.478;2023-06-04T11:00:39;2.10;;;0.80;;
49824;SDS011;35714;55.708;37.478;2023-06-04T11:03:07;3.33;;;1.08;;
49824;SDS011;35714;55.708;37.478;2023-06-04T11:05:38;2.60;;;0.88;;
49824;SDS011;35714;55.708;37.478;2023-06-04T11:08:12;2.17;;;0.57;;
49824;SDS011;35714;55.708;37.478;2023-06-04T11:10:45;4.07;;;0.77;;
49824;SDS011;35714;55.708;37.478;2023-06-04T11:13:11;2.30;;;0.85;;
49824;SDS011;35714;55.708;37.478;2023-06-04T11:15:46;1.95;;;0.80;;
49824;SDS011;35714;55.708;37.478;2023-06-04T11:18:17;1.80;;;0.63;;
49824;SDS011;35714;55.708;37.478;2023-06-04T11:20:48;3.67;;;0.95;;
49824;SDS011;35714;55.708;37.478;2023-06-04T11:23:15;3.05;;;1.08;;
49824;SDS011;35714;55.708;37.478;2023-06-04T11:25:42;3.83;;;1.05;;
49824;SDS011;35714;55.708;37.478;2023-06-04T11:28:18;3.25;;;1.15;;
49824;SDS011;35714;55.708;37.478;2023-06-04T11:30:55;1.65;;;0.65;;
49824;SDS011;35714;55.708;37.478;2023-06-04T11:33:21;1.90;;;0.75;;
49824;SDS011;35714;55.708;37.478;2023-06-04T11:35:47;2.47;;;0.80;;
49824;SDS011;35714;55.708;37.478;2023-06-04T11:38:13;2.35;;;0.68;;
49824;SDS011;35714;55.708;37.478;2023-06-04T11:40:38;2.30;;;0.68;;
49824;SDS011;35714;55.708;37.478;2023-06-04T11:43:04;1.63;;;0.75;;
49824;SDS011;35714;55.708;37.478;2023-06-04T11:45:31;4.57;;;1.20;;
49824;SDS011;35714;55.708;37.478;2023-06-04T11:47:57;4.50;;;1.13;;
49824;SDS011;35714;55.708;37.478;2023-06-04T11:50:27;2.63;;;0.98;;
49824;SDS011;35714;55.708;37.478;2023-06-04T11:52:54;3.13;;;1.08;;
49824;SDS011;35714;55.708;37.478;2023-06-04T11:55:20;2.65;;;0.60;;
49824;SDS011;35714;55.708;37.478;2023-06-04T11:57:46;4.57;;;0.82;;
49824;SDS011;35714;55.708;37.478;2023-06-04T12:00:13;2.33;;;0.90;;
49824;SDS011;35714;55.708;37.478;2023-06-04T12:02:53;1.55;;;0.60;;
49824;SDS011;35714;55.708;37.478;2023-06-04T12:05:28;4.25;;;1.00;;
49824;SDS011;35714;55.708;37.478;2023-06-04T12:08:05;3.38;;;0.80;;
49824;SDS011;35714;55.708;37.478;2023-06-04T12:10:36;2.60;;;0.90;;
49824;SDS011;35714;55.708;37.478;2023-06-04T12:13:05;1.83;;;0.60;;
49824;SDS011;35714;55.708;37.478;2023-06-04T12:15:31;2.58;;;0.90;;
49824;SDS011;35714;55.708;37.478;2023-06-04T12:17:58;2.35;;;0.88;;
49824;SDS011;35714;55.708;37.478;2023-06-04T12:23:24;4.53;;;1.10;;
49824;SDS011;35714;55.708;37.478;2023-06-04T12:25:52;3.67;;;0.93;;
49824;SDS011;35714;55.708;37.478;2023-06-04T12:28:18;2.00;;;1.00;;
49824;SDS011;35714;55.708;37.478;2023-06-04T12:30:45;3.67;;;0.85;;
49824;SDS011;35714;55.708;37.478;2023-06-04T12:33:11;1.98;;;0.50;;
49824;SDS011;35714;55.708;37.478;2023-06-04T12:35:37;2.08;;;0.80;;
49824;SDS011;35714;55.708;37.478;2023-06-04T12:38:03;3.55;;;0.90;;
49824;SDS011;35714;55.708;37.478;2023-06-04T12:40:30;2.00;;;0.77;;
49824;SDS011;35714;55.708;37.478;2023-06-04T12:42:56;2.13;;;1.10;;
49824;SDS011;35714;55.708;37.478;2023-06-04T12:45:21;4.25;;;0.90;;
49824;SDS011;35714;55.708;37.478;2023-06-04T12:47:47;2.35;;;0.90;;
49824;SDS011;35714;55.708;37.478;2023-06-04T12:50:13;2.65;;;0.80;;
49824;SDS011;35714;55.708;37.478;2023-06-04T12:52:38;3.10;;;1.05;;
49824;SDS011;35714;55.708;37.478;2023-06-04T12:55:04;2.40;;;0.90;;
49824;SDS011;35714;55.708;37.478;2023-06-04T12:57:30;1.83;;;0.63;;
49824;SDS011;35714;55.708;37.478;2023-06-04T12:59:56;4.00;;;0.63;;
49824;SDS011;35714;55.708;37.478;2023-06-04T13:02:22;2.75;;;0.90;;
49824;SDS011;35714;55.708;37.478;2023-06-04T13:04:48;5.32;;;0.90;;
49824;SDS011;35714;55.708;37.478;2023-06-04T13:07:18;1.75;;;0.60;;
49824;SDS011;35714;55.708;37.478;2023-06-04T13:09:44;5.60;;;1.20;;
49824;SDS011;35714;55.708;37.478;2023-06-04T13:12:10;2.55;;;0.98;;
49824;SDS011;35714;55.708;37.478;2023-06-04T13:14:36;2.13;;;0.70;;
49824;SDS011;35714;55.708;37.478;2023-06-04T13:17:01;1.90;;;0.65;;
49824;SDS011;35714;55.708;37.478;2023-06-04T13:19:27;5.20;;;1.30;;
49824;SDS011;35714;55.708;37.478;2023-06-04T13:21:53;2.90;;;0.80;;
49824;SDS011;35714;55.708;37.478;2023-06-04T13:24:18;4.07;;;1.08;;
49824;SDS011;35714;55.708;37.478;2023-06-04T13:26:44;4.68;;;1.27;;
49824;SDS011;35714;55.708;37.478;2023-06-04T13:29:10;2.47;;;0.93;;
49824;SDS011;35714;55.708;37.478;2023-06-04T13:31:35;2.53;;;0.73;;
49824;SDS011;35714;55.708;37.478;2023-06-04T13:34:01;1.92;;;0.75;;
49824;SDS011;35714;55.708;37.478;2023-06-04T13:36:27;1.88;;;0.73;;
49824;SDS011;35714;55.708;37.478;2023-06-04T13:38:53;6.07;;;1.00;;
49824;SDS011;35714;55.708;37.478;2023-06-04T13:41:20;3.35;;;1.00;;
49824;SDS011;35714;55.708;37.478;2023-06-04T13:43:46;3.05;;;1.23;;
49824;SDS011;35714;55.708;37.478;2023-06-04T13:46:12;3.35;;;0.90;;
49824;SDS011;35714;55.708;37.478;2023-06-04T13:48:37;3.92;;;1.00;;
49824;SDS011;35714;55.708;37.478;2023-06-04T13:51:03;2.55;;;1.13;;
49824;SDS011;35714;55.708;37.478;2023-06-04T13:53:29;3.58;;;1.10;;
49824;SDS011;35714;55.708;37.478;2023-06-04T13:55:54;1.67;;;0.52;;
49824;SDS011;35714;55.708;37.478;2023-06-04T13:58:24;4.22;;;1.10;;
49824;SDS011;35714;55.708;37.478;2023-06-04T14:00:50;3.13;;;0.80;;
49824;SDS011;35714;55.708;37.478;2023-06-04T14:03:16;3.53;;;0.95;;
49824;SDS011;35714;55.708;37.478;2023-06-04T14:05:42;3.30;;;0.90;;
49824;SDS011;35714;55.708;37.478;2023-06-04T14:08:07;3.40;;;0.90;;
49824;SDS011;35714;55.708;37.478;2023-06-04T14:10:33;3.80;;;0.80;;
49824;SDS011;35714;55.708;37.478;2023-06-04T14:13:01;2.78;;;1.05;;
49824;SDS011;35714;55.708;37.478;2023-06-04T14:15:27;1.92;;;0.60;;
49824;SDS011;35714;55.708;37.478;2023-06-04T14:17:52;5.95;;;2.65;;
49824;SDS011;35714;55.708;37.478;2023-06-04T14:20:18;2.90;;;0.98;;
49824;SDS011;35714;55.708;37.478;2023-06-04T14:22:44;4.00;;;0.65;;
49824;SDS011;35714;55.708;37.478;2023-06-04T14:25:09;3.05;;;1.15;;
49824;SDS011;35714;55.708;37.478;2023-06-04T14:27:35;1.42;;;0.60;;
49824;SDS011;35714;55.708;37.478;2023-06-04T14:30:02;3.65;;;1.15;;
49824;SDS011;35714;55.708;37.478;2023-06-04T14:32:35;2.90;;;1.10;;
49824;SDS011;35714;55.708;37.478;2023-06-04T14:35:01;2.90;;;0.95;;
49824;SDS011;35714;55.708;37.478;2023-06-04T14:37:30;2.38;;;0.90;;
49824;SDS011;35714;55.708;37.478;2023-06-04T14:39:55;5.70;;;1.83;;
49824;SDS011;35714;55.708;37.478;2023-06-04T14:42:21;4.25;;;1.00;;
49824;SDS011;35714;55.708;37.478;2023-06-04T14:44:47;4.25;;;1.13;;
49824;SDS011;35714;55.708;37.478;2023-06-04T14:47:12;2.95;;;1.13;;
49824;SDS011;35714;55.708;37.478;2023-06-04T14:49:38;2.47;;;0.90;;